sensor_id;sensor_type;location;lat;lon;timestamp;P1;durP1;ratioP1;P2;durP2;ratioP2
4754;SDS011;2391;47.212;7.542;2023-12-20T00:01:32;18.37;;;9.90;;
4754;SDS011;2391;47.212;7.542;2023-12-20T00:04:02;18.80;;;10.10;;
4754;SDS011;2391;47.212;7.542;2023-12-20T00:06:29;19.13;;;10.00;;
4754;SDS011;2391;47.212;7.542;2023-12-20T00:08:56;16.13;;;9.00;;
4754;SDS011;2391;47.212;7.542;2023-12-20T00:11:23;19.03;;;10.10;;
4754;SDS011;2391;47.212;7.542;2023-12-20T00:13:49;13.93;;;8.97;;
4754;SDS011;2391;47.212;7.542;2023-12-20T00:16:15;19.83;;;10.50;;
4754;SDS011;2391;47.212;7.542;2023-12-20T00:18:41;20.80;;;11.30;;
4754;SDS011;2391;47.212;7.542;2023-12-20T00:21:06;18.30;;;10.57;;
4754;SDS011;2391;47.212;7.542;2023-12-20T00:23:32;15.70;;;9.27;;
4754;SDS011;2391;47.212;7.542;2023-12-20T00:25:58;18.03;;;10.57;;
4754;SDS011;2391;47.212;7.542;2023-12-20T00:28:24;17.10;;;9.43;;
4754;SDS011;2391;47.212;7.542;2023-12-20T00:30:49;17.10;;;9.57;;
4754;SDS011;2391;47.212;7.542;2023-12-20T00:33:15;21.33;;;11.30;;
4754;SDS011;2391;47.212;7.542;2023-12-20T00:35:41;18.33;;;9.93;;
4754;SDS011;2391;47.212;7.542;2023-12-20T00:38:06;18.47;;;9.97;;
4754;SDS011;2391;47.212;7.542;2023-12-20T00:40:34;17.03;;;10.50;;
4754;SDS011;2391;47.212;7.542;2023-12-20T00:43:00;19.80;;;10.17;;
4754;SDS011;2391;47.212;7.542;2023-12-20T00:45:25;22.17;;;11.00;;
4754;SDS011;2391;47.212;7.542;2023-12-20T00:47:51;20.30;;;10.83;;
4754;SDS011;2391;47.212;7.542;2023-12-20T00:50:17;18.30;;;9.97;;
4754;SDS011;2391;47.212;7.542;2023-12-20T00:52:43;18.37;;;10.20;;
4754;SDS011;2391;47.212;7.542;2023-12-20T00:55:09;19.40;;;10.13;;
4754;SDS011;2391;47.212;7.542;2023-12-20T00:57:34;15.80;;;8.80;;
4754;SDS011;2391;47.212;7.542;2023-12-20T01:00:00;17.20;;;9.57;;
4754;SDS011;2391;47.212;7.542;2023-12-20T01:02:26;17.07;;;9.30;;
4754;SDS011;2391;47.212;7.542;2023-12-20T01:04:52;18.13;;;10.23;;
4754;SDS011;2391;47.212;7.542;2023-12-20T01:07:18;18.13;;;9.80;;
4754;SDS011;2391;47.212;7.542;2023-12-20T01:09:44;23.93;;;10.67;;
4754;SDS011;2391;47.212;7.542;2023-12-20T01:12:10;21.40;;;10.30;;
4754;SDS011;2391;47.212;7.542;2023-12-20T01:14:35;16.27;;;9.57;;
4754;SDS011;2391;47.212;7.542;2023-12-20T01:17:01;20.07;;;9.60;;
4754;SDS011;2391;47.212;7.542;2023-12-20T01:19:27;17.87;;;10.47;;
4754;SDS011;2391;47.212;7.542;2023-12-20T01:21:54;17.27;;;10.00;;
4754;SDS011;2391;47.212;7.542;2023-12-20T01:24:21;23.40;;;11.00;;
4754;SDS011;2391;47.212;7.542;2023-12-20T01:26:47;21.87;;;10.77;;
4754;SDS011;2391;47.212;7.542;2023-12-20T01:29:12;21.40;;;10.60;;
4754;SDS011;2391;47.212;7.542;2023-12-20T01:31:39;20.73;;;11.53;;
4754;SDS011;2391;47.212;7.542;2023-12-20T01:34:06;18.40;;;10.43;;
4754;SDS011;2391;47.212;7.542;2023-12-20T01:36:32;20.67;;;10.93;;
4754;SDS011;2391;47.212;7.542;2023-12-20T01:38:58;18.13;;;10.80;;
4754;SDS011;2391;47.212;7.542;2023-12-20T01:41:23;20.53;;;11.50;;
4754;SDS011;2391;47.212;7.542;2023-12-20T01:43:49;18.87;;;9.67;;
4754;SDS011;2391;47.212;7.542;2023-12-20T01:46:15;21.57;;;11.23;;
4754;SDS011;2391;47.212;7.542;2023-12-20T01:48:42;17.27;;;10.60;;
4754;SDS011;2391;47.212;7.542;2023-12-20T01:51:08;23.37;;;11.60;;
4754;SDS011;2391;47.212;7.542;2023-12-20T01:53:35;21.40;;;10.50;;
4754;SDS011;2391;47.212;7.542;2023-12-20T01:56:02;21.20;;;11.10;;
4754;SDS011;2391;47.212;7.542;2023-12-20T01:58:28;18.10;;;10.17;;
4754;SDS011;2391;47.212;7.542;2023-12-20T02:00:54;19.33;;;10.43;;
4754;SDS011;2391;47.212;7.542;2023-12-20T02:03:20;18.60;;;11.20;;
4754;SDS011;2391;47.212;7.542;2023-12-20T02:05:46;20.10;;;10.10;;
4754;SDS011;2391;47.212;7.542;2023-12-20T02:08:13;14.67;;;9.67;;
4754;SDS011;2391;47.212;7.542;2023-12-20T02:10:39;18.10;;;10.53;;
4754;SDS011;2391;47.212;7.542;2023-12-20T02:13:06;23.17;;;11.03;;
4754;SDS011;2391;47.212;7.542;2023-12-20T02:15:32;18.47;;;10.30;;
4754;SDS011;2391;47.212;7.542;2023-12-20T02:17:58;24.50;;;10.63;;
4754;SDS011;2391;47.212;7.542;2023-12-20T02:20:24;20.30;;;10.87;;
4754;SDS011;2391;47.212;7.542;2023-12-20T02:22:50;25.20;;;11.50;;
4754;SDS011;2391;47.212;7.542;2023-12-20T02:25:16;17.70;;;10.30;;
4754;SDS011;2391;47.212;7.542;2023-12-20T02:27:41;22.70;;;11.60;;
4754;SDS011;2391;47.212;7.542;2023-12-20T02:30:08;23.20;;;11.07;;
4754;SDS011;2391;47.212;7.542;2023-12-20T02:32:35;16.33;;;9.40;;
4754;SDS011;2391;47.212;7.542;2023-12-20T02:35:01;16.83;;;10.10;;
4754;SDS011;2391;47.212;7.542;2023-12-20T02:37:27;18.97;;;10.63;;
4754;SDS011;2391;47.212;7.542;2023-12-20T02:39:52;15.77;;;9.13;;
4754;SDS011;2391;47.212;7.542;2023-12-20T02:42:18;19.10;;;9.97;;
4754;SDS011;2391;47.212;7.542;2023-12-20T02:44:44;18.40;;;10.60;;
4754;SDS011;2391;47.212;7.542;2023-12-20T02:47:09;14.60;;;9.40;;
4754;SDS011;2391;47.212;7.542;2023-12-20T02:49:35;16.20;;;9.17;;
4754;SDS011;2391;47.212;7.542;2023-12-20T02:52:01;14.37;;;9.23;;
4754;SDS011;2391;47.212;7.542;2023-12-20T02:54:27;18.70;;;9.57;;
4754;SDS011;2391;47.212;7.542;2023-12-20T02:56:53;15.43;;;9.43;;
4754;SDS011;2391;47.212;7.542;2023-12-20T02:59:18;16.60;;;9.30;;
4754;SDS011;2391;47.212;7.542;2023-12-20T03:01:45;14.53;;;9.20;;
4754;SDS011;2391;47.212;7.542;2023-12-20T03:04:11;15.33;;;8.80;;
4754;SDS011;2391;47.212;7.542;2023-12-20T03:06:38;16.13;;;9.50;;
4754;SDS011;2391;47.212;7.542;2023-12-20T03:09:04;15.20;;;9.70;;
4754;SDS011;2391;47.212;7.542;2023-12-20T03:11:30;13.70;;;8.30;;
4754;SDS011;2391;47.212;7.542;2023-12-20T03:13:56;14.83;;;8.47;;
4754;SDS011;2391;47.212;7.542;2023-12-20T03:16:23;15.57;;;8.73;;
4754;SDS011;2391;47.212;7.542;2023-12-20T03:18:49;16.70;;;9.20;;
4754;SDS011;2391;47.212;7.542;2023-12-20T03:21:15;18.73;;;9.20;;
4754;SDS011;2391;47.212;7.542;2023-12-20T03:23:41;14.97;;;8.67;;
4754;SDS011;2391;47.212;7.542;2023-12-20T03:26:07;15.10;;;9.27;;
4754;SDS011;2391;47.212;7.542;2023-12-20T03:28:34;16.87;;;9.23;;
4754;SDS011;2391;47.212;7.542;2023-12-20T03:31:01;17.50;;;9.47;;
4754;SDS011;2391;47.212;7.542;2023-12-20T03:33:28;18.73;;;9.00;;
4754;SDS011;2391;47.212;7.542;2023-12-20T03:35:54;18.60;;;9.73;;
4754;SDS011;2391;47.212;7.542;2023-12-20T03:38:20;14.13;;;9.47;;
4754;SDS011;2391;47.212;7.542;2023-12-20T03:40:47;13.53;;;9.50;;
4754;SDS011;2391;47.212;7.542;2023-12-20T03:43:12;15.93;;;9.13;;
4754;SDS011;2391;47.212;7.542;2023-12-20T03:45:38;17.00;;;9.03;;
4754;SDS011;2391;47.212;7.542;2023-12-20T03:48:04;14.40;;;9.03;;
4754;SDS011;2391;47.212;7.542;2023-12-20T03:50:30;13.67;;;8.83;;
4754;SDS011;2391;47.212;7.542;2023-12-20T03:52:56;15.47;;;9.17;;
4754;SDS011;2391;47.212;7.542;2023-12-20T03:55:22;16.50;;;8.10;;
4754;SDS011;2391;47.212;7.542;2023-12-20T03:57:48;15.13;;;10.43;;
4754;SDS011;2391;47.212;7.542;2023-12-20T04:00:14;15.63;;;9.73;;
4754;SDS011;2391;47.212;7.542;2023-12-20T04:02:41;15.20;;;8.70;;
4754;SDS011;2391;47.212;7.542;2023-12-20T04:05:07;15.60;;;8.57;;
4754;SDS011;2391;47.212;7.542;2023-12-20T04:07:34;15.80;;;9.77;;
4754;SDS011;2391;47.212;7.542;2023-12-20T04:10:01;13.00;;;8.13;;
4754;SDS011;2391;47.212;7.542;2023-12-20T04:12:29;18.63;;;9.40;;
4754;SDS011;2391;47.212;7.542;2023-12-20T04:14:56;14.70;;;8.00;;
4754;SDS011;2391;47.212;7.542;2023-12-20T04:17:22;13.80;;;9.70;;
4754;SDS011;2391;47.212;7.542;2023-12-20T04:19:49;17.10;;;8.90;;
4754;SDS011;2391;47.212;7.542;2023-12-20T04:22:15;15.70;;;9.73;;
4754;SDS011;2391;47.212;7.542;2023-12-20T04:24:41;12.23;;;8.53;;
4754;SDS011;2391;47.212;7.542;2023-12-20T04:27:10;11.70;;;8.23;;
4754;SDS011;2391;47.212;7.542;2023-12-20T04:29:35;13.13;;;8.53;;
4754;SDS011;2391;47.212;7.542;2023-12-20T04:32:01;16.40;;;9.13;;
4754;SDS011;2391;47.212;7.542;2023-12-20T04:34:27;14.77;;;9.20;;
4754;SDS011;2391;47.212;7.542;2023-12-20T04:36:53;15.33;;;9.63;;
4754;SDS011;2391;47.212;7.542;2023-12-20T04:39:19;15.20;;;9.73;;
4754;SDS011;2391;47.212;7.542;2023-12-20T04:41:45;15.37;;;9.90;;
4754;SDS011;2391;47.212;7.542;2023-12-20T04:44:13;13.17;;;8.00;;
4754;SDS011;2391;47.212;7.542;2023-12-20T04:46:38;15.10;;;8.70;;
4754;SDS011;2391;47.212;7.542;2023-12-20T04:49:04;15.03;;;8.80;;
4754;SDS011;2391;47.212;7.542;2023-12-20T04:51:32;15.10;;;9.30;;
4754;SDS011;2391;47.212;7.542;2023-12-20T04:53:58;14.10;;;9.10;;
4754;SDS011;2391;47.212;7.542;2023-12-20T04:56:24;15.27;;;9.83;;
4754;SDS011;2391;47.212;7.542;2023-12-20T04:58:50;14.43;;;9.00;;
4754;SDS011;2391;47.212;7.542;2023-12-20T05:01:16;14.93;;;8.90;;
4754;SDS011;2391;47.212;7.542;2023-12-20T05:03:42;12.33;;;8.57;;
4754;SDS011;2391;47.212;7.542;2023-12-20T05:06:09;11.17;;;8.50;;
4754;SDS011;2391;47.212;7.542;2023-12-20T05:08:35;12.93;;;8.67;;
4754;SDS011;2391;47.212;7.542;2023-12-20T05:11:01;14.23;;;8.87;;
4754;SDS011;2391;47.212;7.542;2023-12-20T05:13:27;12.17;;;8.37;;
4754;SDS011;2391;47.212;7.542;2023-12-20T05:15:53;11.83;;;8.30;;
4754;SDS011;2391;47.212;7.542;2023-12-20T05:18:20;11.23;;;8.50;;
4754;SDS011;2391;47.212;7.542;2023-12-20T05:20:46;14.03;;;8.47;;
4754;SDS011;2391;47.212;7.542;2023-12-20T05:23:12;13.40;;;8.40;;
4754;SDS011;2391;47.212;7.542;2023-12-20T05:25:38;12.43;;;8.80;;
4754;SDS011;2391;47.212;7.542;2023-12-20T05:28:04;14.27;;;9.10;;
4754;SDS011;2391;47.212;7.542;2023-12-20T05:30:30;12.50;;;8.53;;
4754;SDS011;2391;47.212;7.542;2023-12-20T05:32:56;12.40;;;8.67;;
4754;SDS011;2391;47.212;7.542;2023-12-20T05:35:22;12.17;;;8.43;;
4754;SDS011;2391;47.212;7.542;2023-12-20T05:37:49;12.00;;;8.17;;
4754;SDS011;2391;47.212;7.542;2023-12-20T05:40:15;13.47;;;8.47;;
4754;SDS011;2391;47.212;7.542;2023-12-20T05:42:41;13.77;;;8.40;;
4754;SDS011;2391;47.212;7.542;2023-12-20T05:45:07;12.17;;;8.20;;
4754;SDS011;2391;47.212;7.542;2023-12-20T05:47:33;13.70;;;8.77;;
4754;SDS011;2391;47.212;7.542;2023-12-20T05:49:59;11.60;;;8.00;;
4754;SDS011;2391;47.212;7.542;2023-12-20T05:52:24;9.63;;;8.37;;
4754;SDS011;2391;47.212;7.542;2023-12-20T05:54:50;10.80;;;8.50;;
4754;SDS011;2391;47.212;7.542;2023-12-20T05:57:16;11.17;;;7.67;;
4754;SDS011;2391;47.212;7.542;2023-12-20T05:59:41;13.23;;;8.30;;
4754;SDS011;2391;47.212;7.542;2023-12-20T06:02:07;9.57;;;7.70;;
4754;SDS011;2391;47.212;7.542;2023-12-20T06:04:33;11.60;;;8.37;;
4754;SDS011;2391;47.212;7.542;2023-12-20T06:06:59;11.47;;;7.63;;
4754;SDS011;2391;47.212;7.542;2023-12-20T06:09:26;13.60;;;8.03;;
4754;SDS011;2391;47.212;7.542;2023-12-20T06:11:52;11.97;;;8.67;;
4754;SDS011;2391;47.212;7.542;2023-12-20T06:14:18;11.37;;;8.07;;
4754;SDS011;2391;47.212;7.542;2023-12-20T06:16:45;10.20;;;8.40;;
4754;SDS011;2391;47.212;7.542;2023-12-20T06:19:11;13.33;;;7.57;;
4754;SDS011;2391;47.212;7.542;2023-12-20T06:21:37;9.50;;;7.77;;
4754;SDS011;2391;47.212;7.542;2023-12-20T06:24:03;11.77;;;8.10;;
4754;SDS011;2391;47.212;7.542;2023-12-20T06:26:29;13.40;;;8.20;;
4754;SDS011;2391;47.212;7.542;2023-12-20T06:28:54;12.50;;;7.80;;
4754;SDS011;2391;47.212;7.542;2023-12-20T06:31:20;18.37;;;9.37;;
4754;SDS011;2391;47.212;7.542;2023-12-20T06:33:46;10.90;;;8.07;;
4754;SDS011;2391;47.212;7.542;2023-12-20T06:36:13;12.87;;;7.80;;
4754;SDS011;2391;47.212;7.542;2023-12-20T06:38:39;16.43;;;9.43;;
4754;SDS011;2391;47.212;7.542;2023-12-20T06:41:05;11.27;;;8.30;;
4754;SDS011;2391;47.212;7.542;2023-12-20T06:43:31;11.30;;;8.70;;
4754;SDS011;2391;47.212;7.542;2023-12-20T06:46:00;11.23;;;8.97;;
4754;SDS011;2391;47.212;7.542;2023-12-20T06:48:26;12.20;;;8.50;;
4754;SDS011;2391;47.212;7.542;2023-12-20T06:50:53;11.93;;;8.80;;
4754;SDS011;2391;47.212;7.542;2023-12-20T06:53:18;9.80;;;7.70;;
4754;SDS011;2391;47.212;7.542;2023-12-20T06:55:44;12.10;;;7.90;;
4754;SDS011;2391;47.212;7.542;2023-12-20T06:58:10;11.37;;;8.33;;
4754;SDS011;2391;47.212;7.542;2023-12-20T07:00:35;11.57;;;8.47;;
4754;SDS011;2391;47.212;7.542;2023-12-20T07:03:01;11.60;;;7.50;;
4754;SDS011;2391;47.212;7.542;2023-12-20T07:05:27;11.07;;;8.47;;
4754;SDS011;2391;47.212;7.542;2023-12-20T07:07:53;13.20;;;8.50;;
4754;SDS011;2391;47.212;7.542;2023-12-20T07:10:19;12.83;;;9.00;;
4754;SDS011;2391;47.212;7.542;2023-12-20T07:12:45;10.07;;;7.53;;
4754;SDS011;2391;47.212;7.542;2023-12-20T07:15:11;11.83;;;7.67;;
4754;SDS011;2391;47.212;7.542;2023-12-20T07:17:37;12.20;;;7.87;;
4754;SDS011;2391;47.212;7.542;2023-12-20T07:20:03;11.87;;;7.90;;
4754;SDS011;2391;47.212;7.542;2023-12-20T07:22:30;12.53;;;7.97;;
4754;SDS011;2391;47.212;7.542;2023-12-20T07:24:59;10.40;;;7.77;;
4754;SDS011;2391;47.212;7.542;2023-12-20T07:27:26;11.07;;;8.83;;
4754;SDS011;2391;47.212;7.542;2023-12-20T07:29:51;11.13;;;8.20;;
4754;SDS011;2391;47.212;7.542;2023-12-20T07:32:17;9.20;;;7.90;;
4754;SDS011;2391;47.212;7.542;2023-12-20T07:34:43;12.07;;;8.20;;
4754;SDS011;2391;47.212;7.542;2023-12-20T07:37:09;10.87;;;7.33;;
4754;SDS011;2391;47.212;7.542;2023-12-20T07:39:41;11.13;;;7.83;;
4754;SDS011;2391;47.212;7.542;2023-12-20T07:42:07;8.80;;;7.13;;
4754;SDS011;2391;47.212;7.542;2023-12-20T07:44:34;9.73;;;7.13;;
4754;SDS011;2391;47.212;7.542;2023-12-20T07:47:03;11.00;;;7.90;;
4754;SDS011;2391;47.212;7.542;2023-12-20T07:49:34;8.40;;;7.13;;
4754;SDS011;2391;47.212;7.542;2023-12-20T07:51:57;11.43;;;8.30;;
4754;SDS011;2391;47.212;7.542;2023-12-20T07:54:23;11.90;;;8.23;;
4754;SDS011;2391;47.212;7.542;2023-12-20T07:56:48;9.70;;;7.80;;
4754;SDS011;2391;47.212;7.542;2023-12-20T07:59:15;8.90;;;7.37;;
4754;SDS011;2391;47.212;7.542;2023-12-20T08:01:40;11.83;;;8.37;;
4754;SDS011;2391;47.212;7.542;2023-12-20T08:04:07;12.33;;;8.20;;
4754;SDS011;2391;47.212;7.542;2023-12-20T08:06:33;11.20;;;8.30;;
4754;SDS011;2391;47.212;7.542;2023-12-20T08:08:59;11.63;;;8.57;;
4754;SDS011;2391;47.212;7.542;2023-12-20T08:11:25;16.93;;;8.17;;
4754;SDS011;2391;47.212;7.542;2023-12-20T08:13:51;13.70;;;8.63;;
4754;SDS011;2391;47.212;7.542;2023-12-20T08:16:16;11.10;;;8.70;;
4754;SDS011;2391;47.212;7.542;2023-12-20T08:18:43;13.30;;;8.47;;
4754;SDS011;2391;47.212;7.542;2023-12-20T08:21:09;9.10;;;7.57;;
4754;SDS011;2391;47.212;7.542;2023-12-20T08:23:35;13.90;;;8.57;;
4754;SDS011;2391;47.212;7.542;2023-12-20T08:26:04;11.60;;;8.60;;
4754;SDS011;2391;47.212;7.542;2023-12-20T08:28:31;12.07;;;8.70;;
4754;SDS011;2391;47.212;7.542;2023-12-20T08:30:57;9.87;;;7.70;;
4754;SDS011;2391;47.212;7.542;2023-12-20T08:33:23;18.83;;;8.70;;
4754;SDS011;2391;47.212;7.542;2023-12-20T08:35:49;11.40;;;7.80;;
4754;SDS011;2391;47.212;7.542;2023-12-20T08:38:14;13.30;;;9.30;;
4754;SDS011;2391;47.212;7.542;2023-12-20T08:40:40;10.63;;;8.60;;
4754;SDS011;2391;47.212;7.542;2023-12-20T08:43:06;14.00;;;9.50;;
4754;SDS011;2391;47.212;7.542;2023-12-20T08:45:32;13.17;;;8.60;;
4754;SDS011;2391;47.212;7.542;2023-12-20T08:47:58;14.90;;;8.50;;
4754;SDS011;2391;47.212;7.542;2023-12-20T08:50:25;11.93;;;8.70;;
4754;SDS011;2391;47.212;7.542;2023-12-20T08:52:51;13.67;;;9.37;;
4754;SDS011;2391;47.212;7.542;2023-12-20T08:55:17;12.87;;;8.63;;
4754;SDS011;2391;47.212;7.542;2023-12-20T08:57:43;10.73;;;8.53;;
4754;SDS011;2391;47.212;7.542;2023-12-20T09:00:09;11.10;;;8.43;;
4754;SDS011;2391;47.212;7.542;2023-12-20T09:02:36;12.03;;;8.70;;
4754;SDS011;2391;47.212;7.542;2023-12-20T09:05:03;11.30;;;8.47;;
4754;SDS011;2391;47.212;7.542;2023-12-20T09:07:29;11.93;;;8.70;;
4754;SDS011;2391;47.212;7.542;2023-12-20T09:09:57;11.20;;;8.50;;
4754;SDS011;2391;47.212;7.542;2023-12-20T09:12:24;12.97;;;8.73;;
4754;SDS011;2391;47.212;7.542;2023-12-20T09:14:51;13.13;;;9.00;;
4754;SDS011;2391;47.212;7.542;2023-12-20T09:17:17;12.10;;;8.27;;
4754;SDS011;2391;47.212;7.542;2023-12-20T09:19:44;11.07;;;8.23;;
4754;SDS011;2391;47.212;7.542;2023-12-20T09:22:10;10.30;;;7.73;;
4754;SDS011;2391;47.212;7.542;2023-12-20T09:24:37;9.10;;;7.93;;
4754;SDS011;2391;47.212;7.542;2023-12-20T09:27:04;10.47;;;8.30;;
4754;SDS011;2391;47.212;7.542;2023-12-20T09:29:30;12.87;;;7.80;;
4754;SDS011;2391;47.212;7.542;2023-12-20T09:31:57;9.20;;;6.90;;
4754;SDS011;2391;47.212;7.542;2023-12-20T09:34:23;10.60;;;7.30;;
4754;SDS011;2391;47.212;7.542;2023-12-20T09:36:49;10.27;;;8.00;;
4754;SDS011;2391;47.212;7.542;2023-12-20T09:39:16;12.63;;;7.70;;
4754;SDS011;2391;47.212;7.542;2023-12-20T09:41:49;9.77;;;7.50;;
4754;SDS011;2391;47.212;7.542;2023-12-20T09:44:26;12.50;;;8.20;;
4754;SDS011;2391;47.212;7.542;2023-12-20T09:46:52;11.80;;;8.53;;
4754;SDS011;2391;47.212;7.542;2023-12-20T09:49:19;12.77;;;7.83;;
4754;SDS011;2391;47.212;7.542;2023-12-20T09:51:46;8.00;;;6.73;;
4754;SDS011;2391;47.212;7.542;2023-12-20T09:54:13;9.63;;;7.27;;
4754;SDS011;2391;47.212;7.542;2023-12-20T09:56:40;10.50;;;8.20;;
4754;SDS011;2391;47.212;7.542;2023-12-20T09:59:06;11.47;;;7.20;;
4754;SDS011;2391;47.212;7.542;2023-12-20T10:01:33;10.57;;;7.50;;
4754;SDS011;2391;47.212;7.542;2023-12-20T10:04:03;7.40;;;5.60;;
4754;SDS011;2391;47.212;7.542;2023-12-20T10:06:32;8.30;;;6.47;;
4754;SDS011;2391;47.212;7.542;2023-12-20T10:08:58;7.40;;;6.67;;
4754;SDS011;2391;47.212;7.542;2023-12-20T10:11:24;10.23;;;6.90;;
4754;SDS011;2391;47.212;7.542;2023-12-20T10:13:50;11.60;;;6.60;;
4754;SDS011;2391;47.212;7.542;2023-12-20T10:16:16;9.97;;;6.50;;
4754;SDS011;2391;47.212;7.542;2023-12-20T10:18:42;7.07;;;5.93;;
4754;SDS011;2391;47.212;7.542;2023-12-20T10:21:07;8.03;;;6.07;;
4754;SDS011;2391;47.212;7.542;2023-12-20T10:23:35;8.63;;;6.43;;
4754;SDS011;2391;47.212;7.542;2023-12-20T10:26:02;8.90;;;6.20;;
4754;SDS011;2391;47.212;7.542;2023-12-20T10:28:28;7.67;;;5.50;;
4754;SDS011;2391;47.212;7.542;2023-12-20T10:30:57;6.47;;;5.57;;
4754;SDS011;2391;47.212;7.542;2023-12-20T10:33:27;5.70;;;5.20;;
4754;SDS011;2391;47.212;7.542;2023-12-20T10:35:51;6.77;;;5.97;;
4754;SDS011;2391;47.212;7.542;2023-12-20T10:38:19;5.53;;;4.40;;
4754;SDS011;2391;47.212;7.542;2023-12-20T10:40:45;4.53;;;4.13;;
4754;SDS011;2391;47.212;7.542;2023-12-20T10:43:12;5.27;;;4.77;;
4754;SDS011;2391;47.212;7.542;2023-12-20T10:45:38;4.47;;;4.03;;
4754;SDS011;2391;47.212;7.542;2023-12-20T10:48:04;3.90;;;3.60;;
4754;SDS011;2391;47.212;7.542;2023-12-20T10:50:31;4.27;;;3.97;;
4754;SDS011;2391;47.212;7.542;2023-12-20T10:52:57;3.90;;;3.60;;
4754;SDS011;2391;47.212;7.542;2023-12-20T10:55:24;8.00;;;3.60;;
4754;SDS011;2391;47.212;7.542;2023-12-20T10:57:51;2.93;;;2.63;;
4754;SDS011;2391;47.212;7.542;2023-12-20T11:00:18;2.30;;;2.20;;
4754;SDS011;2391;47.212;7.542;2023-12-20T11:02:46;2.40;;;2.20;;
4754;SDS011;2391;47.212;7.542;2023-12-20T11:08:09;1.27;;;1.17;;
4754;SDS011;2391;47.212;7.542;2023-12-20T11:10:39;1.20;;;1.20;;
4754;SDS011;2391;47.212;7.542;2023-12-20T11:13:14;1.23;;;1.23;;
4754;SDS011;2391;47.212;7.542;2023-12-20T11:15:44;1.37;;;1.37;;
4754;SDS011;2391;47.212;7.542;2023-12-20T11:18:11;1.83;;;1.60;;
4754;SDS011;2391;47.212;7.542;2023-12-20T11:20:38;2.50;;;2.30;;
4754;SDS011;2391;47.212;7.542;2023-12-20T11:23:05;1.50;;;1.40;;
4754;SDS011;2391;47.212;7.542;2023-12-20T11:28:16;1.07;;;1.07;;
4754;SDS011;2391;47.212;7.542;2023-12-20T11:30:52;1.10;;;1.00;;
4754;SDS011;2391;47.212;7.542;2023-12-20T11:33:22;0.80;;;0.80;;
4754;SDS011;2391;47.212;7.542;2023-12-20T11:35:49;0.70;;;0.70;;
4754;SDS011;2391;47.212;7.542;2023-12-20T11:38:15;0.40;;;0.40;;
4754;SDS011;2391;47.212;7.542;2023-12-20T11:40:41;0.30;;;0.30;;
4754;SDS011;2391;47.212;7.542;2023-12-20T11:43:09;0.30;;;0.30;;
4754;SDS011;2391;47.212;7.542;2023-12-20T11:45:35;0.30;;;0.30;;
4754;SDS011;2391;47.212;7.542;2023-12-20T11:48:01;0.30;;;0.30;;
4754;SDS011;2391;47.212;7.542;2023-12-20T11:50:28;0.30;;;0.30;;
4754;SDS011;2391;47.212;7.542;2023-12-20T11:52:56;0.30;;;0.30;;
4754;SDS011;2391;47.212;7.542;2023-12-20T11:55:23;0.30;;;0.30;;
4754;SDS011;2391;47.212;7.542;2023-12-20T11:57:49;0.30;;;0.30;;
4754;SDS011;2391;47.212;7.542;2023-12-20T12:00:16;0.30;;;0.30;;
4754;SDS011;2391;47.212;7.542;2023-12-20T12:02:43;0.30;;;0.30;;
4754;SDS011;2391;47.212;7.542;2023-12-20T12:05:13;0.30;;;0.30;;
4754;SDS011;2391;47.212;7.542;2023-12-20T12:07:38;0.30;;;0.30;;
4754;SDS011;2391;47.212;7.542;2023-12-20T12:10:04;0.30;;;0.30;;
4754;SDS011;2391;47.212;7.542;2023-12-20T12:12:31;0.40;;;0.40;;
4754;SDS011;2391;47.212;7.542;2023-12-20T12:14:58;0.30;;;0.30;;
4754;SDS011;2391;47.212;7.542;2023-12-20T12:17:24;0.40;;;0.40;;
4754;SDS011;2391;47.212;7.542;2023-12-20T12:19:51;0.60;;;0.30;;
4754;SDS011;2391;47.212;7.542;2023-12-20T12:22:20;0.40;;;0.40;;
4754;SDS011;2391;47.212;7.542;2023-12-20T12:24:48;0.40;;;0.40;;
4754;SDS011;2391;47.212;7.542;2023-12-20T12:27:15;0.33;;;0.33;;
4754;SDS011;2391;47.212;7.542;2023-12-20T12:29:42;0.40;;;0.40;;
4754;SDS011;2391;47.212;7.542;2023-12-20T12:32:29;0.30;;;0.30;;
4754;SDS011;2391;47.212;7.542;2023-12-20T12:34:55;0.30;;;0.30;;
4754;SDS011;2391;47.212;7.542;2023-12-20T12:37:20;0.40;;;0.40;;
4754;SDS011;2391;47.212;7.542;2023-12-20T12:39:49;0.40;;;0.40;;
4754;SDS011;2391;47.212;7.542;2023-12-20T12:42:15;0.50;;;0.50;;
4754;SDS011;2391;47.212;7.542;2023-12-20T12:44:41;0.40;;;0.40;;
4754;SDS011;2391;47.212;7.542;2023-12-20T12:47:06;0.40;;;0.40;;
4754;SDS011;2391;47.212;7.542;2023-12-20T12:49:33;1.27;;;1.17;;
4754;SDS011;2391;47.212;7.542;2023-12-20T12:51:59;0.50;;;0.50;;
4754;SDS011;2391;47.212;7.542;2023-12-20T12:54:25;0.40;;;0.40;;
4754;SDS011;2391;47.212;7.542;2023-12-20T12:56:51;1.33;;;0.40;;
4754;SDS011;2391;47.212;7.542;2023-12-20T12:59:18;0.40;;;0.40;;
4754;SDS011;2391;47.212;7.542;2023-12-20T13:01:44;0.40;;;0.40;;
4754;SDS011;2391;47.212;7.542;2023-12-20T13:04:10;0.40;;;0.40;;
4754;SDS011;2391;47.212;7.542;2023-12-20T13:06:36;0.40;;;0.40;;
4754;SDS011;2391;47.212;7.542;2023-12-20T13:09:03;0.50;;;0.50;;
4754;SDS011;2391;47.212;7.542;2023-12-20T13:11:30;0.40;;;0.40;;
4754;SDS011;2391;47.212;7.542;2023-12-20T13:13:57;0.40;;;0.40;;
4754;SDS011;2391;47.212;7.542;2023-12-20T13:16:23;0.50;;;0.50;;
4754;SDS011;2391;47.212;7.542;2023-12-20T13:18:50;0.50;;;0.50;;
4754;SDS011;2391;47.212;7.542;2023-12-20T13:21:15;0.57;;;0.57;;
4754;SDS011;2391;47.212;7.542;2023-12-20T13:23:42;0.50;;;0.50;;
4754;SDS011;2391;47.212;7.542;2023-12-20T13:26:08;0.47;;;0.47;;
4754;SDS011;2391;47.212;7.542;2023-12-20T13:28:34;4.67;;;0.70;;
4754;SDS011;2391;47.212;7.542;2023-12-20T13:30:59;2.20;;;0.50;;
4754;SDS011;2391;47.212;7.542;2023-12-20T13:33:25;0.50;;;0.50;;
4754;SDS011;2391;47.212;7.542;2023-12-20T13:35:51;0.50;;;0.50;;
4754;SDS011;2391;47.212;7.542;2023-12-20T13:38:17;0.40;;;0.40;;
4754;SDS011;2391;47.212;7.542;2023-12-20T13:40:43;1.13;;;0.63;;
4754;SDS011;2391;47.212;7.542;2023-12-20T13:43:09;0.87;;;0.50;;
4754;SDS011;2391;47.212;7.542;2023-12-20T13:45:36;0.90;;;0.50;;
4754;SDS011;2391;47.212;7.542;2023-12-20T13:48:02;0.40;;;0.40;;
4754;SDS011;2391;47.212;7.542;2023-12-20T13:50:28;0.50;;;0.50;;
4754;SDS011;2391;47.212;7.542;2023-12-20T13:52:54;0.47;;;0.47;;
4754;SDS011;2391;47.212;7.542;2023-12-20T13:55:20;2.00;;;0.60;;
4754;SDS011;2391;47.212;7.542;2023-12-20T13:57:47;0.63;;;0.63;;
4754;SDS011;2391;47.212;7.542;2023-12-20T14:00:14;0.40;;;0.40;;
4754;SDS011;2391;47.212;7.542;2023-12-20T14:02:40;0.40;;;0.40;;
4754;SDS011;2391;47.212;7.542;2023-12-20T14:05:08;1.07;;;0.50;;
4754;SDS011;2391;47.212;7.542;2023-12-20T14:07:35;0.97;;;0.53;;
4754;SDS011;2391;47.212;7.542;2023-12-20T14:10:02;0.77;;;0.60;;
4754;SDS011;2391;47.212;7.542;2023-12-20T14:12:28;0.40;;;0.40;;
4754;SDS011;2391;47.212;7.542;2023-12-20T14:14:54;0.50;;;0.50;;
4754;SDS011;2391;47.212;7.542;2023-12-20T14:17:21;0.50;;;0.50;;
4754;SDS011;2391;47.212;7.542;2023-12-20T14:19:47;1.70;;;0.57;;
4754;SDS011;2391;47.212;7.542;2023-12-20T14:22:13;0.43;;;0.40;;
4754;SDS011;2391;47.212;7.542;2023-12-20T14:24:41;0.60;;;0.60;;
4754;SDS011;2391;47.212;7.542;2023-12-20T14:27:06;0.43;;;0.43;;
4754;SDS011;2391;47.212;7.542;2023-12-20T14:29:34;3.70;;;0.50;;
4754;SDS011;2391;47.212;7.542;2023-12-20T14:32:00;0.50;;;0.50;;
4754;SDS011;2391;47.212;7.542;2023-12-20T14:34:28;0.50;;;0.50;;
4754;SDS011;2391;47.212;7.542;2023-12-20T14:36:54;0.50;;;0.50;;
4754;SDS011;2391;47.212;7.542;2023-12-20T14:39:19;0.67;;;0.50;;
4754;SDS011;2391;47.212;7.542;2023-12-20T14:41:45;0.73;;;0.50;;
4754;SDS011;2391;47.212;7.542;2023-12-20T14:44:11;0.40;;;0.40;;
4754;SDS011;2391;47.212;7.542;2023-12-20T14:46:37;1.80;;;0.87;;
4754;SDS011;2391;47.212;7.542;2023-12-20T14:49:04;1.53;;;0.60;;
4754;SDS011;2391;47.212;7.542;2023-12-20T14:51:30;1.97;;;0.60;;
4754;SDS011;2391;47.212;7.542;2023-12-20T14:53:56;0.43;;;0.43;;
4754;SDS011;2391;47.212;7.542;2023-12-20T14:56:23;0.50;;;0.50;;
4754;SDS011;2391;47.212;7.542;2023-12-20T14:58:52;0.60;;;0.60;;
4754;SDS011;2391;47.212;7.542;2023-12-20T15:01:18;0.40;;;0.40;;
4754;SDS011;2391;47.212;7.542;2023-12-20T15:03:48;0.60;;;0.60;;
4754;SDS011;2391;47.212;7.542;2023-12-20T15:06:14;1.50;;;0.50;;